createdAt,value
2023-02-17T00:04:04.077Z,9.32
2023-02-17T00:14:25.215Z,9.57
2023-02-17T00:24:46.650Z,9.05
2023-02-17T00:35:08.497Z,9.00
2023-02-17T00:45:29.466Z,9.45
2023-02-17T00:55:50.990Z,9.27
2023-02-17T01:06:24.273Z,9.48
2023-02-17T01:16:47.703Z,9.85
2023-02-17T01:27:08.963Z,8.75
2023-02-17T01:37:32.821Z,8.75
2023-02-17T01:48:03.217Z,8.50
2023-02-17T01:58:25.189Z,8.43
2023-02-17T02:08:52.030Z,8.88
2023-02-17T02:19:22.054Z,8.25
2023-02-17T02:29:58.091Z,8.13
2023-02-17T02:40:23.496Z,8.02
2023-02-17T02:51:08.309Z,8.93
2023-02-17T03:01:34.857Z,7.15
2023-02-17T03:11:58.147Z,7.60
2023-02-17T03:22:26.652Z,6.25
2023-02-17T03:32:48.163Z,7.30
2023-02-17T03:43:09.730Z,6.57
2023-02-17T03:53:31.107Z,6.95
2023-02-17T04:03:52.414Z,6.28
2023-02-17T04:14:13.587Z,5.93
2023-02-17T04:24:36.912Z,5.72
2023-02-17T04:34:58.003Z,5.70
2023-02-17T04:45:19.242Z,5.22
2023-02-17T04:55:41.360Z,5.25
2023-02-17T05:06:02.640Z,5.25
2023-02-17T05:16:23.758Z,5.18
2023-02-17T05:26:45.053Z,5.13
2023-02-17T05:37:06.150Z,4.90
2023-02-17T05:47:27.765Z,4.82
2023-02-17T05:57:49.440Z,5.07
2023-02-17T06:08:10.458Z,4.78
2023-02-17T06:18:31.831Z,4.97
2023-02-17T06:28:53.039Z,4.50
2023-02-17T06:39:14.508Z,4.25
2023-02-17T06:49:35.798Z,4.72
2023-02-17T06:59:56.829Z,5.15
2023-02-17T07:10:18.092Z,4.70
2023-02-17T07:20:39.444Z,4.50
2023-02-17T07:31:12.116Z,5.10
2023-02-17T07:41:33.870Z,3.80
2023-02-17T07:52:04.935Z,4.30
2023-02-17T08:02:26.657Z,4.82
2023-02-17T08:13:06.710Z,4.38
2023-02-17T08:23:27.940Z,4.13
2023-02-17T08:33:49.374Z,4.25
2023-02-17T08:44:16.373Z,4.82
2023-02-17T08:54:38.653Z,4.97
2023-02-17T09:05:00.083Z,4.47
2023-02-17T09:15:21.469Z,4.28
2023-02-17T09:25:43.006Z,4.30
2023-02-17T09:36:06.357Z,4.38
2023-02-17T09:46:36.156Z,4.32
2023-02-17T09:56:58.528Z,3.83
2023-02-17T10:07:30.256Z,4.13
2023-02-17T10:18:06.337Z,4.45
2023-02-17T10:28:43.664Z,3.72
2023-02-17T10:39:27.118Z,3.58
2023-02-17T10:49:52.135Z,3.80
2023-02-17T11:00:18.850Z,3.40
2023-02-17T11:10:41.576Z,3.00
2023-02-17T11:21:09.410Z,3.13
2023-02-17T11:31:32.128Z,3.00
2023-02-17T11:41:53.507Z,2.88
2023-02-17T11:52:30.793Z,2.95
2023-02-17T12:03:10.166Z,2.88
2023-02-17T12:13:40.738Z,2.53
2023-02-17T12:24:13.879Z,3.05
2023-02-17T12:35:11.610Z,2.47
2023-02-17T12:45:43.683Z,2.70
2023-02-17T12:56:20.790Z,2.20
2023-02-17T13:06:45.727Z,2.45
2023-02-17T13:17:07.167Z,2.55
2023-02-17T13:27:27.990Z,2.00
2023-02-17T13:37:49.049Z,2.22
2023-02-17T13:48:34.362Z,2.03
2023-02-17T13:59:07.411Z,2.28
2023-02-17T14:09:31.118Z,2.30
2023-02-17T14:19:52.564Z,2.08
2023-02-17T14:30:29.412Z,1.80
2023-02-17T14:40:50.707Z,1.83
2023-02-17T14:51:17.478Z,1.73
2023-02-17T15:01:38.858Z,1.90
2023-02-17T15:12:00.525Z,1.70
2023-02-17T15:22:22.019Z,1.60
2023-02-17T15:32:43.571Z,1.70
2023-02-17T15:43:04.892Z,1.70
2023-02-17T15:53:26.090Z,1.55
2023-02-17T16:03:47.220Z,2.00
2023-02-17T16:14:11.748Z,1.67
2023-02-17T16:24:32.744Z,1.60
2023-02-17T16:34:53.844Z,1.48
2023-02-17T16:45:17.795Z,1.40
2023-02-17T16:55:38.940Z,1.55
2023-02-17T17:06:02.094Z,1.60
2023-02-17T17:16:31.260Z,1.52
2023-02-17T17:26:52.837Z,1.80
2023-02-17T17:37:14.021Z,1.70
2023-02-17T17:47:35.200Z,1.63
2023-02-17T17:57:56.339Z,1.40
2023-02-17T18:08:19.211Z,1.30
2023-02-17T18:18:40.898Z,1.48
2023-02-17T18:29:02.238Z,1.65
2023-02-17T18:39:24.575Z,1.40
2023-02-17T18:49:46.114Z,1.17
2023-02-17T19:00:10.238Z,1.35
2023-02-17T19:10:31.554Z,1.27
2023-02-17T19:20:54.370Z,1.20
2023-02-17T19:31:21.179Z,1.30
2023-02-17T19:41:42.688Z,1.05
2023-02-17T19:52:06.487Z,1.27
2023-02-17T20:02:27.727Z,1.08
2023-02-17T20:12:49.572Z,1.27
2023-02-17T20:23:10.597Z,1.05
2023-02-17T20:33:32.019Z,1.08
2023-02-17T20:43:53.417Z,1.02
2023-02-17T20:54:15.276Z,1.23
2023-02-17T21:04:36.259Z,1.20
2023-02-17T21:14:57.563Z,1.00
2023-02-17T21:25:18.692Z,1.20
2023-02-17T21:35:39.639Z,1.05
2023-02-17T21:46:01.646Z,1.10
2023-02-17T21:56:23.523Z,1.10
2023-02-17T22:06:45.184Z,1.00
2023-02-17T22:17:06.270Z,1.02
2023-02-17T22:27:27.703Z,1.40
2023-02-17T22:37:48.889Z,0.93
2023-02-17T22:48:10.296Z,1.20
2023-02-17T22:58:31.858Z,1.10
2023-02-17T23:08:53.650Z,1.25
2023-02-17T23:19:18.644Z,1.55
2023-02-17T23:29:41.424Z,1.10
2023-02-17T23:40:03.521Z,1.27
2023-02-17T23:50:25.137Z,1.30
